sensor_id;sensor_type;location;lat;lon;timestamp;P1;durP1;ratioP1;P2;durP2;ratioP2
62102;SDS011;48077;48.104;11.702;2023-09-18T00:00:55;199.43;;;144.90;;
62102;SDS011;48077;48.104;11.702;2023-09-18T00:07:40;204.77;;;149.02;;
62102;SDS011;48077;48.104;11.702;2023-09-18T00:10:04;203.65;;;148.73;;
62102;SDS011;48077;48.104;11.702;2023-09-18T00:12:27;202.07;;;147.45;;
62102;SDS011;48077;48.104;11.702;2023-09-18T00:14:51;201.23;;;147.68;;
62102;SDS011;48077;48.104;11.702;2023-09-18T00:17:14;200.30;;;146.68;;
62102;SDS011;48077;48.104;11.702;2023-09-18T00:19:37;204.73;;;148.35;;
62102;SDS011;48077;48.104;11.702;2023-09-18T00:22:01;201.43;;;147.23;;
62102;SDS011;48077;48.104;11.702;2023-09-18T00:24:24;200.52;;;145.80;;
62102;SDS011;48077;48.104;11.702;2023-09-18T00:26:48;200.52;;;146.35;;
62102;SDS011;48077;48.104;11.702;2023-09-18T00:29:11;201.27;;;146.80;;
62102;SDS011;48077;48.104;11.702;2023-09-18T00:31:35;206.13;;;149.50;;
62102;SDS011;48077;48.104;11.702;2023-09-18T00:33:58;201.57;;;147.40;;
62102;SDS011;48077;48.104;11.702;2023-09-18T00:36:23;207.75;;;148.98;;
62102;SDS011;48077;48.104;11.702;2023-09-18T00:38:47;205.38;;;148.13;;
62102;SDS011;48077;48.104;11.702;2023-09-18T00:41:10;201.30;;;147.23;;
62102;SDS011;48077;48.104;11.702;2023-09-18T00:43:34;200.38;;;146.05;;
62102;SDS011;48077;48.104;11.702;2023-09-18T00:45:57;199.48;;;146.15;;
62102;SDS011;48077;48.104;11.702;2023-09-18T00:48:21;202.82;;;147.25;;
62102;SDS011;48077;48.104;11.702;2023-09-18T00:50:45;199.18;;;145.93;;
62102;SDS011;48077;48.104;11.702;2023-09-18T00:53:08;204.23;;;148.30;;
62102;SDS011;48077;48.104;11.702;2023-09-18T00:55:34;203.07;;;147.98;;
62102;SDS011;48077;48.104;11.702;2023-09-18T00:58:00;205.80;;;148.32;;
62102;SDS011;48077;48.104;11.702;2023-09-18T01:00:24;198.73;;;144.88;;
62102;SDS011;48077;48.104;11.702;2023-09-18T01:02:47;201.50;;;145.93;;
62102;SDS011;48077;48.104;11.702;2023-09-18T01:05:11;207.63;;;148.25;;
62102;SDS011;48077;48.104;11.702;2023-09-18T01:07:35;198.93;;;145.15;;
62102;SDS011;48077;48.104;11.702;2023-09-18T01:09:59;204.15;;;147.52;;
62102;SDS011;48077;48.104;11.702;2023-09-18T01:12:32;199.02;;;146.00;;
62102;SDS011;48077;48.104;11.702;2023-09-18T01:15:04;201.80;;;146.20;;
62102;SDS011;48077;48.104;11.702;2023-09-18T01:17:35;201.38;;;146.18;;
62102;SDS011;48077;48.104;11.702;2023-09-18T01:20:01;203.93;;;147.40;;
62102;SDS011;48077;48.104;11.702;2023-09-18T01:22:24;201.60;;;146.43;;
62102;SDS011;48077;48.104;11.702;2023-09-18T01:24:48;198.43;;;145.32;;
62102;SDS011;48077;48.104;11.702;2023-09-18T01:27:12;206.77;;;148.05;;
62102;SDS011;48077;48.104;11.702;2023-09-18T01:29:37;202.48;;;146.55;;
62102;SDS011;48077;48.104;11.702;2023-09-18T01:32:00;198.57;;;145.45;;
62102;SDS011;48077;48.104;11.702;2023-09-18T01:34:34;203.35;;;147.00;;
62102;SDS011;48077;48.104;11.702;2023-09-18T01:37:00;200.93;;;146.35;;
62102;SDS011;48077;48.104;11.702;2023-09-18T01:39:24;201.95;;;146.05;;
62102;SDS011;48077;48.104;11.702;2023-09-18T01:41:50;211.20;;;149.77;;
62102;SDS011;48077;48.104;11.702;2023-09-18T01:44:13;203.70;;;145.30;;
62102;SDS011;48077;48.104;11.702;2023-09-18T01:46:37;202.57;;;145.77;;
62102;SDS011;48077;48.104;11.702;2023-09-18T01:49:02;202.27;;;146.07;;
62102;SDS011;48077;48.104;11.702;2023-09-18T01:51:26;201.93;;;145.73;;
62102;SDS011;48077;48.104;11.702;2023-09-18T01:53:50;202.90;;;147.02;;
62102;SDS011;48077;48.104;11.702;2023-09-18T01:56:13;206.80;;;148.60;;
62102;SDS011;48077;48.104;11.702;2023-09-18T01:58:36;205.90;;;148.25;;
62102;SDS011;48077;48.104;11.702;2023-09-18T02:01:00;211.15;;;151.15;;
62102;SDS011;48077;48.104;11.702;2023-09-18T02:03:24;210.50;;;150.77;;
62102;SDS011;48077;48.104;11.702;2023-09-18T02:05:47;210.85;;;150.07;;
62102;SDS011;48077;48.104;11.702;2023-09-18T02:08:11;213.27;;;152.07;;
62102;SDS011;48077;48.104;11.702;2023-09-18T02:10:34;216.32;;;153.55;;
62102;SDS011;48077;48.104;11.702;2023-09-18T02:12:57;214.10;;;151.35;;
62102;SDS011;48077;48.104;11.702;2023-09-18T02:15:21;213.95;;;151.80;;
62102;SDS011;48077;48.104;11.702;2023-09-18T02:17:44;212.73;;;152.60;;
62102;SDS011;48077;48.104;11.702;2023-09-18T02:20:08;221.65;;;154.75;;
62102;SDS011;48077;48.104;11.702;2023-09-18T02:22:34;222.48;;;154.82;;
62102;SDS011;48077;48.104;11.702;2023-09-18T02:24:57;217.38;;;153.77;;
62102;SDS011;48077;48.104;11.702;2023-09-18T02:27:21;215.35;;;153.07;;
62102;SDS011;48077;48.104;11.702;2023-09-18T02:29:44;214.63;;;152.23;;
62102;SDS011;48077;48.104;11.702;2023-09-18T02:32:08;216.45;;;153.15;;
62102;SDS011;48077;48.104;11.702;2023-09-18T02:34:33;221.55;;;155.48;;
62102;SDS011;48077;48.104;11.702;2023-09-18T02:36:56;221.50;;;154.60;;
62102;SDS011;48077;48.104;11.702;2023-09-18T02:39:19;222.00;;;156.13;;
62102;SDS011;48077;48.104;11.702;2023-09-18T02:41:43;215.13;;;152.80;;
62102;SDS011;48077;48.104;11.702;2023-09-18T02:44:06;220.38;;;155.63;;
62102;SDS011;48077;48.104;11.702;2023-09-18T02:46:30;225.90;;;157.35;;
62102;SDS011;48077;48.104;11.702;2023-09-18T02:48:53;220.98;;;155.15;;
62102;SDS011;48077;48.104;11.702;2023-09-18T02:51:16;225.30;;;157.88;;
62102;SDS011;48077;48.104;11.702;2023-09-18T02:53:40;218.18;;;154.60;;
62102;SDS011;48077;48.104;11.702;2023-09-18T02:56:03;224.13;;;157.80;;
62102;SDS011;48077;48.104;11.702;2023-09-18T02:58:26;228.05;;;159.10;;
62102;SDS011;48077;48.104;11.702;2023-09-18T03:00:52;234.95;;;161.10;;
62102;SDS011;48077;48.104;11.702;2023-09-18T03:03:19;236.02;;;162.25;;
62102;SDS011;48077;48.104;11.702;2023-09-18T03:05:43;217.38;;;153.95;;
62102;SDS011;48077;48.104;11.702;2023-09-18T03:08:07;226.32;;;157.95;;
62102;SDS011;48077;48.104;11.702;2023-09-18T03:10:34;228.18;;;158.55;;
62102;SDS011;48077;48.104;11.702;2023-09-18T03:12:58;230.20;;;159.48;;
62102;SDS011;48077;48.104;11.702;2023-09-18T03:15:23;227.77;;;158.45;;
62102;SDS011;48077;48.104;11.702;2023-09-18T03:17:46;229.13;;;158.85;;
62102;SDS011;48077;48.104;11.702;2023-09-18T03:20:09;229.95;;;158.45;;
62102;SDS011;48077;48.104;11.702;2023-09-18T03:22:33;222.82;;;156.90;;
62102;SDS011;48077;48.104;11.702;2023-09-18T03:24:56;229.88;;;159.45;;
62102;SDS011;48077;48.104;11.702;2023-09-18T03:27:20;233.57;;;160.65;;
62102;SDS011;48077;48.104;11.702;2023-09-18T03:29:43;227.85;;;158.80;;
62102;SDS011;48077;48.104;11.702;2023-09-18T03:32:06;227.02;;;158.55;;
62102;SDS011;48077;48.104;11.702;2023-09-18T03:34:30;232.90;;;160.40;;
62102;SDS011;48077;48.104;11.702;2023-09-18T03:36:53;234.07;;;162.00;;
62102;SDS011;48077;48.104;11.702;2023-09-18T03:39:17;235.40;;;162.60;;
62102;SDS011;48077;48.104;11.702;2023-09-18T03:41:40;240.88;;;165.65;;
62102;SDS011;48077;48.104;11.702;2023-09-18T03:44:03;241.30;;;165.35;;
62102;SDS011;48077;48.104;11.702;2023-09-18T03:46:27;236.85;;;163.13;;
62102;SDS011;48077;48.104;11.702;2023-09-18T03:48:50;237.13;;;161.82;;
62102;SDS011;48077;48.104;11.702;2023-09-18T03:51:14;240.20;;;164.70;;
62102;SDS011;48077;48.104;11.702;2023-09-18T03:53:38;230.32;;;159.75;;
62102;SDS011;48077;48.104;11.702;2023-09-18T03:56:02;233.35;;;160.70;;
62102;SDS011;48077;48.104;11.702;2023-09-18T03:58:25;235.32;;;162.45;;
62102;SDS011;48077;48.104;11.702;2023-09-18T04:00:49;233.80;;;161.65;;
62102;SDS011;48077;48.104;11.702;2023-09-18T04:03:14;230.25;;;160.07;;
62102;SDS011;48077;48.104;11.702;2023-09-18T04:05:37;233.73;;;162.02;;
62102;SDS011;48077;48.104;11.702;2023-09-18T04:08:01;245.27;;;166.27;;
62102;SDS011;48077;48.104;11.702;2023-09-18T04:10:25;236.18;;;162.60;;
62102;SDS011;48077;48.104;11.702;2023-09-18T04:12:49;236.70;;;162.57;;
62102;SDS011;48077;48.104;11.702;2023-09-18T04:15:15;239.63;;;164.20;;
62102;SDS011;48077;48.104;11.702;2023-09-18T04:17:38;236.25;;;162.98;;
62102;SDS011;48077;48.104;11.702;2023-09-18T04:20:01;234.63;;;161.82;;
62102;SDS011;48077;48.104;11.702;2023-09-18T04:22:27;242.23;;;165.68;;
62102;SDS011;48077;48.104;11.702;2023-09-18T04:24:50;240.00;;;163.50;;
62102;SDS011;48077;48.104;11.702;2023-09-18T04:27:14;243.32;;;166.70;;
62102;SDS011;48077;48.104;11.702;2023-09-18T04:29:37;245.07;;;167.60;;
62102;SDS011;48077;48.104;11.702;2023-09-18T04:32:00;246.55;;;167.73;;
62102;SDS011;48077;48.104;11.702;2023-09-18T04:34:24;246.60;;;169.43;;
62102;SDS011;48077;48.104;11.702;2023-09-18T04:36:47;244.60;;;166.88;;
62102;SDS011;48077;48.104;11.702;2023-09-18T04:39:11;244.68;;;166.95;;
62102;SDS011;48077;48.104;11.702;2023-09-18T04:41:34;248.70;;;169.68;;
62102;SDS011;48077;48.104;11.702;2023-09-18T04:43:58;248.07;;;168.35;;
62102;SDS011;48077;48.104;11.702;2023-09-18T04:46:21;245.80;;;167.98;;
62102;SDS011;48077;48.104;11.702;2023-09-18T04:48:46;251.35;;;170.88;;
62102;SDS011;48077;48.104;11.702;2023-09-18T04:51:10;253.05;;;172.60;;
62102;SDS011;48077;48.104;11.702;2023-09-18T04:53:35;253.35;;;171.77;;
62102;SDS011;48077;48.104;11.702;2023-09-18T04:55:58;252.77;;;171.05;;
62102;SDS011;48077;48.104;11.702;2023-09-18T04:58:23;255.68;;;173.18;;
62102;SDS011;48077;48.104;11.702;2023-09-18T05:00:53;250.55;;;170.95;;
62102;SDS011;48077;48.104;11.702;2023-09-18T05:03:17;248.00;;;169.43;;
62102;SDS011;48077;48.104;11.702;2023-09-18T05:05:41;252.85;;;172.30;;
62102;SDS011;48077;48.104;11.702;2023-09-18T05:08:05;254.35;;;172.32;;
62102;SDS011;48077;48.104;11.702;2023-09-18T05:10:36;255.57;;;173.15;;
62102;SDS011;48077;48.104;11.702;2023-09-18T05:13:00;258.13;;;174.20;;
62102;SDS011;48077;48.104;11.702;2023-09-18T05:15:27;253.85;;;173.13;;
62102;SDS011;48077;48.104;11.702;2023-09-18T05:17:53;255.63;;;172.60;;
62102;SDS011;48077;48.104;11.702;2023-09-18T05:20:20;255.50;;;172.60;;
62102;SDS011;48077;48.104;11.702;2023-09-18T05:22:43;261.20;;;175.00;;
62102;SDS011;48077;48.104;11.702;2023-09-18T05:25:11;252.30;;;172.25;;
62102;SDS011;48077;48.104;11.702;2023-09-18T05:27:34;247.10;;;169.38;;
62102;SDS011;48077;48.104;11.702;2023-09-18T05:29:57;256.58;;;172.98;;
62102;SDS011;48077;48.104;11.702;2023-09-18T05:32:21;251.15;;;169.80;;
62102;SDS011;48077;48.104;11.702;2023-09-18T05:34:44;244.13;;;168.10;;
62102;SDS011;48077;48.104;11.702;2023-09-18T05:37:07;256.13;;;173.20;;
62102;SDS011;48077;48.104;11.702;2023-09-18T05:39:31;252.63;;;172.35;;
62102;SDS011;48077;48.104;11.702;2023-09-18T05:41:54;255.43;;;173.25;;
62102;SDS011;48077;48.104;11.702;2023-09-18T05:44:18;244.95;;;168.20;;
62102;SDS011;48077;48.104;11.702;2023-09-18T05:46:41;254.05;;;172.43;;
62102;SDS011;48077;48.104;11.702;2023-09-18T05:49:04;253.98;;;172.02;;
62102;SDS011;48077;48.104;11.702;2023-09-18T05:51:28;249.25;;;169.88;;
62102;SDS011;48077;48.104;11.702;2023-09-18T05:53:52;255.13;;;171.75;;
62102;SDS011;48077;48.104;11.702;2023-09-18T05:56:16;248.32;;;169.75;;
62102;SDS011;48077;48.104;11.702;2023-09-18T05:58:40;252.07;;;169.48;;
62102;SDS011;48077;48.104;11.702;2023-09-18T06:01:03;246.38;;;167.13;;
62102;SDS011;48077;48.104;11.702;2023-09-18T06:03:27;253.18;;;171.30;;
62102;SDS011;48077;48.104;11.702;2023-09-18T06:05:53;247.27;;;167.48;;
62102;SDS011;48077;48.104;11.702;2023-09-18T06:08:16;245.23;;;166.30;;
62102;SDS011;48077;48.104;11.702;2023-09-18T06:10:41;248.52;;;167.80;;
62102;SDS011;48077;48.104;11.702;2023-09-18T06:13:05;246.23;;;166.15;;
62102;SDS011;48077;48.104;11.702;2023-09-18T06:15:29;251.30;;;168.10;;
62102;SDS011;48077;48.104;11.702;2023-09-18T06:17:52;245.90;;;166.65;;
62102;SDS011;48077;48.104;11.702;2023-09-18T06:20:15;240.32;;;163.23;;
62102;SDS011;48077;48.104;11.702;2023-09-18T06:22:40;239.40;;;163.80;;
62102;SDS011;48077;48.104;11.702;2023-09-18T06:25:04;242.20;;;164.82;;
62102;SDS011;48077;48.104;11.702;2023-09-18T06:27:28;233.05;;;160.20;;
62102;SDS011;48077;48.104;11.702;2023-09-18T06:29:52;235.90;;;159.95;;
62102;SDS011;48077;48.104;11.702;2023-09-18T06:32:15;222.77;;;154.68;;
62102;SDS011;48077;48.104;11.702;2023-09-18T06:34:38;228.15;;;156.93;;
62102;SDS011;48077;48.104;11.702;2023-09-18T06:37:05;230.30;;;158.10;;
62102;SDS011;48077;48.104;11.702;2023-09-18T06:39:30;228.70;;;157.45;;
62102;SDS011;48077;48.104;11.702;2023-09-18T06:41:54;224.15;;;155.52;;
62102;SDS011;48077;48.104;11.702;2023-09-18T06:44:17;224.10;;;155.80;;
62102;SDS011;48077;48.104;11.702;2023-09-18T06:46:40;232.90;;;158.35;;
62102;SDS011;48077;48.104;11.702;2023-09-18T06:49:04;224.88;;;155.60;;
62102;SDS011;48077;48.104;11.702;2023-09-18T06:51:27;225.32;;;156.00;;
62102;SDS011;48077;48.104;11.702;2023-09-18T06:53:51;222.43;;;153.73;;
62102;SDS011;48077;48.104;11.702;2023-09-18T06:56:14;218.13;;;151.90;;
62102;SDS011;48077;48.104;11.702;2023-09-18T06:58:37;220.45;;;153.55;;
62102;SDS011;48077;48.104;11.702;2023-09-18T07:01:02;221.38;;;153.35;;
62102;SDS011;48077;48.104;11.702;2023-09-18T07:03:29;220.02;;;152.93;;
62102;SDS011;48077;48.104;11.702;2023-09-18T07:05:55;210.93;;;149.23;;
62102;SDS011;48077;48.104;11.702;2023-09-18T07:08:18;220.77;;;152.65;;
62102;SDS011;48077;48.104;11.702;2023-09-18T07:10:46;221.63;;;153.43;;
62102;SDS011;48077;48.104;11.702;2023-09-18T07:13:09;210.93;;;148.60;;
62102;SDS011;48077;48.104;11.702;2023-09-18T07:15:32;214.73;;;150.32;;
62102;SDS011;48077;48.104;11.702;2023-09-18T07:17:56;208.82;;;148.35;;
62102;SDS011;48077;48.104;11.702;2023-09-18T07:20:19;219.57;;;150.30;;
62102;SDS011;48077;48.104;11.702;2023-09-18T07:22:46;219.38;;;152.50;;
62102;SDS011;48077;48.104;11.702;2023-09-18T07:25:13;208.07;;;148.40;;
62102;SDS011;48077;48.104;11.702;2023-09-18T07:27:37;203.10;;;146.23;;
62102;SDS011;48077;48.104;11.702;2023-09-18T07:30:02;204.40;;;146.15;;
62102;SDS011;48077;48.104;11.702;2023-09-18T07:32:27;207.88;;;147.73;;
62102;SDS011;48077;48.104;11.702;2023-09-18T07:34:51;206.80;;;146.43;;
62102;SDS011;48077;48.104;11.702;2023-09-18T07:37:14;208.55;;;146.10;;
62102;SDS011;48077;48.104;11.702;2023-09-18T07:39:43;207.13;;;147.05;;
62102;SDS011;48077;48.104;11.702;2023-09-18T07:42:07;213.73;;;148.32;;
62102;SDS011;48077;48.104;11.702;2023-09-18T07:44:30;205.35;;;143.95;;
62102;SDS011;48077;48.104;11.702;2023-09-18T07:46:53;205.85;;;145.55;;
62102;SDS011;48077;48.104;11.702;2023-09-18T07:49:17;203.55;;;144.73;;
62102;SDS011;48077;48.104;11.702;2023-09-18T07:51:43;196.13;;;141.50;;
62102;SDS011;48077;48.104;11.702;2023-09-18T07:54:07;196.30;;;142.65;;
62102;SDS011;48077;48.104;11.702;2023-09-18T07:56:30;191.88;;;140.13;;
62102;SDS011;48077;48.104;11.702;2023-09-18T07:58:56;188.85;;;139.32;;
62102;SDS011;48077;48.104;11.702;2023-09-18T08:01:19;189.40;;;138.32;;
62102;SDS011;48077;48.104;11.702;2023-09-18T08:03:45;187.02;;;138.02;;
62102;SDS011;48077;48.104;11.702;2023-09-18T08:06:09;185.52;;;137.23;;
62102;SDS011;48077;48.104;11.702;2023-09-18T08:08:34;184.65;;;137.27;;
62102;SDS011;48077;48.104;11.702;2023-09-18T08:11:04;182.75;;;134.90;;
62102;SDS011;48077;48.104;11.702;2023-09-18T08:13:33;187.50;;;138.25;;
62102;SDS011;48077;48.104;11.702;2023-09-18T08:15:57;181.85;;;136.63;;
62102;SDS011;48077;48.104;11.702;2023-09-18T08:18:20;181.20;;;135.90;;
62102;SDS011;48077;48.104;11.702;2023-09-18T08:20:43;178.95;;;134.55;;
62102;SDS011;48077;48.104;11.702;2023-09-18T08:23:07;175.80;;;133.70;;
62102;SDS011;48077;48.104;11.702;2023-09-18T08:25:30;174.55;;;131.98;;
62102;SDS011;48077;48.104;11.702;2023-09-18T08:27:55;172.60;;;131.15;;
62102;SDS011;48077;48.104;11.702;2023-09-18T08:30:18;165.65;;;129.27;;
62102;SDS011;48077;48.104;11.702;2023-09-18T08:32:43;167.52;;;129.70;;
62102;SDS011;48077;48.104;11.702;2023-09-18T08:35:07;166.30;;;129.90;;
62102;SDS011;48077;48.104;11.702;2023-09-18T08:37:31;177.65;;;132.52;;
62102;SDS011;48077;48.104;11.702;2023-09-18T08:39:55;172.45;;;130.93;;
62102;SDS011;48077;48.104;11.702;2023-09-18T08:42:18;169.98;;;130.38;;
62102;SDS011;48077;48.104;11.702;2023-09-18T08:44:43;173.57;;;132.15;;
62102;SDS011;48077;48.104;11.702;2023-09-18T08:47:09;171.75;;;129.57;;
62102;SDS011;48077;48.104;11.702;2023-09-18T08:49:36;168.43;;;130.25;;
62102;SDS011;48077;48.104;11.702;2023-09-18T08:52:01;165.65;;;128.05;;
62102;SDS011;48077;48.104;11.702;2023-09-18T08:54:25;167.73;;;130.30;;
62102;SDS011;48077;48.104;11.702;2023-09-18T08:56:48;175.70;;;132.43;;
62102;SDS011;48077;48.104;11.702;2023-09-18T08:59:12;173.15;;;132.63;;
62102;SDS011;48077;48.104;11.702;2023-09-18T09:01:36;175.27;;;130.45;;
62102;SDS011;48077;48.104;11.702;2023-09-18T09:04:00;180.70;;;134.98;;
62102;SDS011;48077;48.104;11.702;2023-09-18T09:06:23;179.10;;;133.75;;
62102;SDS011;48077;48.104;11.702;2023-09-18T09:08:47;179.82;;;132.80;;
62102;SDS011;48077;48.104;11.702;2023-09-18T09:11:10;176.05;;;133.48;;
62102;SDS011;48077;48.104;11.702;2023-09-18T09:13:33;175.52;;;132.40;;
62102;SDS011;48077;48.104;11.702;2023-09-18T09:15:57;181.85;;;133.75;;
62102;SDS011;48077;48.104;11.702;2023-09-18T09:18:22;176.55;;;133.60;;
62102;SDS011;48077;48.104;11.702;2023-09-18T09:20:53;185.43;;;136.18;;
62102;SDS011;48077;48.104;11.702;2023-09-18T09:23:25;185.93;;;138.20;;
62102;SDS011;48077;48.104;11.702;2023-09-18T09:25:49;184.55;;;137.88;;
62102;SDS011;48077;48.104;11.702;2023-09-18T09:28:13;188.23;;;139.13;;
62102;SDS011;48077;48.104;11.702;2023-09-18T09:30:37;196.25;;;141.82;;
62102;SDS011;48077;48.104;11.702;2023-09-18T09:33:03;186.20;;;137.73;;
62102;SDS011;48077;48.104;11.702;2023-09-18T09:35:32;197.23;;;141.23;;
62102;SDS011;48077;48.104;11.702;2023-09-18T09:37:59;198.02;;;140.77;;
62102;SDS011;48077;48.104;11.702;2023-09-18T09:40:24;198.27;;;140.88;;
62102;SDS011;48077;48.104;11.702;2023-09-18T09:42:50;192.80;;;140.88;;
62102;SDS011;48077;48.104;11.702;2023-09-18T09:45:15;201.85;;;143.77;;
62102;SDS011;48077;48.104;11.702;2023-09-18T09:47:41;195.00;;;141.73;;
62102;SDS011;48077;48.104;11.702;2023-09-18T09:50:09;203.77;;;145.38;;
62102;SDS011;48077;48.104;11.702;2023-09-18T09:52:43;201.50;;;144.20;;
62102;SDS011;48077;48.104;11.702;2023-09-18T09:57:55;227.38;;;155.70;;
62102;SDS011;48077;48.104;11.702;2023-09-18T10:00:25;220.82;;;151.88;;
62102;SDS011;48077;48.104;11.702;2023-09-18T10:02:58;221.02;;;151.70;;
62102;SDS011;48077;48.104;11.702;2023-09-18T10:05:27;219.85;;;151.82;;
62102;SDS011;48077;48.104;11.702;2023-09-18T10:07:52;219.23;;;150.98;;
62102;SDS011;48077;48.104;11.702;2023-09-18T10:10:19;231.32;;;155.65;;
62102;SDS011;48077;48.104;11.702;2023-09-18T10:12:42;229.57;;;156.05;;
62102;SDS011;48077;48.104;11.702;2023-09-18T10:15:07;236.57;;;158.30;;
62102;SDS011;48077;48.104;11.702;2023-09-18T10:17:32;244.32;;;161.77;;
62102;SDS011;48077;48.104;11.702;2023-09-18T10:22:29;308.77;;;190.70;;
62102;SDS011;48077;48.104;11.702;2023-09-18T10:25:05;571.75;;;300.33;;
62102;SDS011;48077;48.104;11.702;2023-09-18T10:27:40;502.83;;;270.38;;
62102;SDS011;48077;48.104;11.702;2023-09-18T10:30:06;295.90;;;184.93;;
62102;SDS011;48077;48.104;11.702;2023-09-18T10:32:34;221.40;;;150.70;;
62102;SDS011;48077;48.104;11.702;2023-09-18T10:34:58;204.00;;;144.13;;
62102;SDS011;48077;48.104;11.702;2023-09-18T10:37:23;185.38;;;137.43;;
62102;SDS011;48077;48.104;11.702;2023-09-18T10:39:47;178.68;;;134.30;;
62102;SDS011;48077;48.104;11.702;2023-09-18T10:42:12;177.07;;;132.20;;
62102;SDS011;48077;48.104;11.702;2023-09-18T10:44:39;156.48;;;123.72;;
62102;SDS011;48077;48.104;11.702;2023-09-18T10:47:03;154.05;;;120.43;;
62102;SDS011;48077;48.104;11.702;2023-09-18T10:49:29;147.05;;;118.20;;
62102;SDS011;48077;48.104;11.702;2023-09-18T10:51:54;139.57;;;114.00;;
62102;SDS011;48077;48.104;11.702;2023-09-18T10:54:20;145.15;;;116.00;;
62102;SDS011;48077;48.104;11.702;2023-09-18T10:56:44;135.65;;;112.35;;
62102;SDS011;48077;48.104;11.702;2023-09-18T10:59:08;134.80;;;111.43;;
62102;SDS011;48077;48.104;11.702;2023-09-18T11:01:32;130.20;;;108.47;;
62102;SDS011;48077;48.104;11.702;2023-09-18T11:04:00;139.95;;;111.90;;
62102;SDS011;48077;48.104;11.702;2023-09-18T11:06:24;124.43;;;107.25;;
62102;SDS011;48077;48.104;11.702;2023-09-18T11:08:49;130.82;;;108.32;;
62102;SDS011;48077;48.104;11.702;2023-09-18T11:11:16;129.82;;;107.43;;
62102;SDS011;48077;48.104;11.702;2023-09-18T11:13:44;125.65;;;106.50;;
62102;SDS011;48077;48.104;11.702;2023-09-18T11:16:13;119.05;;;103.05;;
62102;SDS011;48077;48.104;11.702;2023-09-18T11:18:38;116.60;;;102.57;;
62102;SDS011;48077;48.104;11.702;2023-09-18T11:21:08;116.60;;;103.13;;
62102;SDS011;48077;48.104;11.702;2023-09-18T11:23:35;128.38;;;107.97;;
62102;SDS011;48077;48.104;11.702;2023-09-18T11:26:07;122.57;;;104.20;;
62102;SDS011;48077;48.104;11.702;2023-09-18T11:28:30;122.88;;;102.63;;
62102;SDS011;48077;48.104;11.702;2023-09-18T11:30:55;118.45;;;102.15;;
62102;SDS011;48077;48.104;11.702;2023-09-18T11:35:53;143.40;;;115.15;;
62102;SDS011;48077;48.104;11.702;2023-09-18T11:38:16;130.32;;;106.93;;
62102;SDS011;48077;48.104;11.702;2023-09-18T11:40:39;117.80;;;103.57;;
62102;SDS011;48077;48.104;11.702;2023-09-18T11:43:23;123.00;;;104.20;;
62102;SDS011;48077;48.104;11.702;2023-09-18T11:45:49;135.45;;;109.05;;
62102;SDS011;48077;48.104;11.702;2023-09-18T11:48:14;131.48;;;108.63;;
62102;SDS011;48077;48.104;11.702;2023-09-18T11:50:38;124.65;;;105.82;;
62102;SDS011;48077;48.104;11.702;2023-09-18T11:53:05;129.23;;;107.30;;
62102;SDS011;48077;48.104;11.702;2023-09-18T11:55:29;130.70;;;107.85;;
62102;SDS011;48077;48.104;11.702;2023-09-18T11:57:53;128.93;;;109.03;;
62102;SDS011;48077;48.104;11.702;2023-09-18T12:00:21;125.93;;;107.50;;
62102;SDS011;48077;48.104;11.702;2023-09-18T12:02:50;126.47;;;108.15;;
62102;SDS011;48077;48.104;11.702;2023-09-18T12:05:14;127.05;;;107.47;;
62102;SDS011;48077;48.104;11.702;2023-09-18T12:07:42;130.98;;;111.40;;
62102;SDS011;48077;48.104;11.702;2023-09-18T12:10:08;129.90;;;110.32;;
62102;SDS011;48077;48.104;11.702;2023-09-18T12:12:33;137.55;;;113.65;;
62102;SDS011;48077;48.104;11.702;2023-09-18T12:14:56;139.13;;;114.90;;
62102;SDS011;48077;48.104;11.702;2023-09-18T12:17:20;153.90;;;119.53;;
62102;SDS011;48077;48.104;11.702;2023-09-18T12:19:52;141.20;;;116.05;;
62102;SDS011;48077;48.104;11.702;2023-09-18T12:22:22;150.35;;;119.82;;
62102;SDS011;48077;48.104;11.702;2023-09-18T12:24:52;156.45;;;122.32;;
62102;SDS011;48077;48.104;11.702;2023-09-18T12:27:16;155.55;;;123.57;;
62102;SDS011;48077;48.104;11.702;2023-09-18T12:29:39;156.65;;;123.55;;
62102;SDS011;48077;48.104;11.702;2023-09-18T12:32:03;155.43;;;122.47;;
62102;SDS011;48077;48.104;11.702;2023-09-18T12:34:29;163.00;;;126.72;;
62102;SDS011;48077;48.104;11.702;2023-09-18T12:36:52;164.80;;;127.30;;
62102;SDS011;48077;48.104;11.702;2023-09-18T12:39:16;163.40;;;126.57;;
62102;SDS011;48077;48.104;11.702;2023-09-18T12:41:44;174.85;;;130.57;;
62102;SDS011;48077;48.104;11.702;2023-09-18T12:44:07;180.98;;;134.85;;
62102;SDS011;48077;48.104;11.702;2023-09-18T12:46:31;180.50;;;132.80;;
62102;SDS011;48077;48.104;11.702;2023-09-18T12:48:55;176.38;;;132.68;;
62102;SDS011;48077;48.104;11.702;2023-09-18T12:51:18;180.98;;;134.25;;
62102;SDS011;48077;48.104;11.702;2023-09-18T12:53:58;177.70;;;133.15;;
62102;SDS011;48077;48.104;11.702;2023-09-18T12:56:23;182.48;;;134.82;;
62102;SDS011;48077;48.104;11.702;2023-09-18T12:58:47;186.50;;;137.82;;
62102;SDS011;48077;48.104;11.702;2023-09-18T13:01:11;188.32;;;138.02;;
62102;SDS011;48077;48.104;11.702;2023-09-18T13:03:44;194.73;;;140.18;;
62102;SDS011;48077;48.104;11.702;2023-09-18T13:06:15;203.85;;;142.25;;
62102;SDS011;48077;48.104;11.702;2023-09-18T13:08:43;194.45;;;141.02;;
62102;SDS011;48077;48.104;11.702;2023-09-18T13:11:06;190.48;;;138.35;;
62102;SDS011;48077;48.104;11.702;2023-09-18T13:13:30;200.93;;;143.10;;
62102;SDS011;48077;48.104;11.702;2023-09-18T13:15:56;214.82;;;146.55;;
62102;SDS011;48077;48.104;11.702;2023-09-18T13:18:22;202.60;;;144.18;;
62102;SDS011;48077;48.104;11.702;2023-09-18T13:20:46;196.00;;;142.32;;
62102;SDS011;48077;48.104;11.702;2023-09-18T13:23:09;205.45;;;144.57;;
62102;SDS011;48077;48.104;11.702;2023-09-18T13:25:37;200.63;;;143.93;;
62102;SDS011;48077;48.104;11.702;2023-09-18T13:28:04;212.70;;;148.93;;
62102;SDS011;48077;48.104;11.702;2023-09-18T13:30:29;210.57;;;148.35;;
62102;SDS011;48077;48.104;11.702;2023-09-18T13:33:01;210.32;;;147.30;;
62102;SDS011;48077;48.104;11.702;2023-09-18T13:35:27;216.20;;;150.45;;
62102;SDS011;48077;48.104;11.702;2023-09-18T13:37:50;216.88;;;149.82;;
62102;SDS011;48077;48.104;11.702;2023-09-18T13:40:13;218.25;;;151.60;;
62102;SDS011;48077;48.104;11.702;2023-09-18T13:42:38;214.90;;;149.35;;